createdAt,value
2018-10-12T06:11:19.285Z,23.80
2018-10-12T06:13:48.875Z,22.80
2018-10-12T06:16:17.997Z,20.70
2018-10-12T06:18:47.169Z,19.70
2018-10-12T06:21:16.349Z,20.10
2018-10-12T06:23:45.911Z,20.90
2018-10-12T06:26:16.794Z,21.50
2018-10-12T06:28:46.366Z,21.90
2018-10-12T06:31:15.970Z,22.20
2018-10-12T06:33:45.665Z,22.40
2018-10-12T06:36:14.759Z,22.50
2018-10-12T06:38:43.819Z,22.70
2018-10-12T06:41:13.533Z,22.80
2018-10-12T06:43:42.629Z,22.80
2018-10-12T06:46:11.816Z,22.90
2018-10-12T06:48:41.363Z,22.90
2018-10-12T06:51:10.499Z,23.00
2018-10-12T06:53:39.580Z,23.00
2018-10-12T06:56:09.339Z,23.10
2018-10-12T06:58:39.462Z,23.10
2018-10-12T07:01:09.943Z,23.10
2018-10-12T07:03:40.102Z,23.10
2018-10-12T07:06:08.657Z,23.10
2018-10-12T07:08:37.792Z,23.20
2018-10-12T07:11:08.429Z,23.20
2018-10-12T07:13:37.667Z,23.30
2018-10-12T07:16:07.391Z,23.30
2018-10-12T07:20:01.789Z,23.30
2018-10-12T07:22:31.187Z,23.40
2018-10-12T07:25:00.437Z,23.50
2018-10-12T07:27:29.844Z,23.60
2018-10-12T07:29:59.555Z,23.70
2018-10-12T07:32:30.011Z,23.80
2018-10-12T07:34:59.230Z,24.00
2018-10-12T07:37:28.332Z,24.10
2018-10-12T07:39:58.158Z,24.30
2018-10-12T07:42:27.364Z,24.40
2018-10-12T07:44:56.437Z,24.50
2018-10-12T07:47:25.794Z,24.70
2018-10-12T07:49:55.487Z,24.80
2018-10-12T07:52:24.751Z,24.80
2018-10-12T07:54:53.895Z,25.00
2018-10-12T07:57:29.119Z,25.10
2018-10-12T07:59:59.031Z,25.20
2018-10-12T08:02:28.879Z,25.30
2018-10-12T08:04:58.322Z,25.40
2018-10-12T08:07:27.994Z,25.40
2018-10-12T08:09:59.545Z,25.50
2018-10-12T08:12:29.438Z,25.60
2018-10-12T08:14:59.763Z,25.70
2018-10-12T08:17:28.920Z,25.80
2018-10-12T08:19:58.462Z,25.80
2018-10-12T08:22:28.082Z,25.90
2018-10-12T08:24:58.368Z,26.00
2018-10-12T08:27:28.925Z,26.10
2018-10-12T08:29:59.310Z,26.20
2018-10-12T08:32:29.993Z,26.20
2018-10-12T08:34:59.725Z,26.30
2018-10-12T08:37:29.586Z,26.30
2018-10-12T08:39:58.758Z,26.40
2018-10-12T08:42:28.214Z,26.50
2018-10-12T08:44:57.306Z,26.50
2018-10-12T08:47:27.246Z,26.60
2018-10-12T08:49:56.365Z,26.60
2018-10-12T08:52:25.463Z,26.60
2018-10-12T08:54:55.599Z,26.70
2018-10-12T08:57:24.906Z,26.70
2018-10-12T08:59:54.609Z,26.70
2018-10-12T09:02:25.246Z,26.80
2018-10-12T09:04:54.425Z,26.80
2018-10-12T09:07:23.461Z,26.80
2018-10-12T09:09:53.318Z,26.80
2018-10-12T09:12:22.395Z,26.90
2018-10-12T09:14:51.444Z,26.90
2018-10-12T09:17:25.162Z,26.90
2018-10-12T09:19:54.758Z,27.00
2018-10-12T09:22:23.841Z,26.90
2018-10-12T09:24:53.081Z,27.00
2018-10-12T09:27:22.211Z,27.00
2018-10-12T09:29:51.924Z,27.00
2018-10-12T09:32:21.506Z,27.10
2018-10-12T09:34:50.569Z,27.10
2018-10-12T09:37:19.642Z,27.10
2018-10-12T09:39:48.860Z,27.20
2018-10-12T09:42:18.125Z,27.10
2018-10-12T09:44:47.254Z,27.20
2018-10-12T09:47:17.393Z,27.30
2018-10-12T09:49:47.225Z,27.30
2018-10-12T09:52:17.115Z,27.30
2018-10-12T09:54:46.742Z,27.30
2018-10-12T09:57:36.592Z,27.40
2018-10-12T10:01:09.410Z,27.40
2018-10-12T10:03:43.963Z,27.40
2018-10-12T10:06:13.125Z,27.50
2018-10-12T10:08:42.297Z,27.50
2018-10-12T10:11:12.545Z,27.50
2018-10-12T10:13:41.637Z,27.50
2018-10-12T10:16:10.701Z,27.40
2018-10-12T10:18:39.773Z,27.30
2018-10-12T10:21:08.833Z,27.30
2018-10-12T10:23:37.978Z,27.20
2018-10-12T10:26:07.402Z,27.20
2018-10-12T10:28:36.546Z,27.20
2018-10-12T10:31:06.353Z,27.10
2018-10-12T10:33:35.811Z,27.00
2018-10-12T10:36:04.873Z,27.10
2018-10-12T10:38:34.803Z,27.10
2018-10-12T10:41:04.599Z,27.40
2018-10-12T10:43:34.026Z,27.40
2018-10-12T10:46:03.254Z,27.40
2018-10-12T10:48:33.490Z,27.50
2018-10-12T10:51:02.703Z,27.50
2018-10-12T10:53:32.079Z,27.60
2018-10-12T10:56:02.238Z,27.70
2018-10-12T10:58:31.293Z,27.70
2018-10-12T11:01:01.477Z,27.70
2018-10-12T11:03:30.494Z,27.70
2018-10-12T11:05:59.803Z,27.80
2018-10-12T11:08:29.101Z,27.80
2018-10-12T11:10:59.863Z,27.80
2018-10-12T11:13:28.998Z,27.80
2018-10-12T11:15:58.166Z,27.80
2018-10-12T11:18:27.261Z,27.80
2018-10-12T11:20:56.418Z,27.80
2018-10-12T11:23:25.547Z,27.80
2018-10-12T11:25:54.688Z,27.80
2018-10-12T11:28:24.420Z,27.80
2018-10-12T11:30:54.461Z,27.90
2018-10-12T11:33:24.109Z,27.90
2018-10-12T11:35:53.179Z,27.90
2018-10-12T11:38:22.359Z,28.00
2018-10-12T11:40:53.613Z,28.00
2018-10-12T11:43:26.774Z,28.00
2018-10-12T11:45:56.082Z,28.10
2018-10-12T11:48:25.886Z,28.10
2018-10-12T11:50:55.168Z,28.20
2018-10-12T11:53:25.226Z,28.20
2018-10-12T11:55:54.376Z,28.20
2018-10-12T11:58:23.770Z,28.30
2018-10-12T12:00:53.496Z,28.30
2018-10-12T12:03:22.782Z,28.30
2018-10-12T12:05:51.978Z,28.30
2018-10-12T12:08:21.068Z,28.40
2018-10-12T12:10:51.267Z,28.50
2018-10-12T12:13:20.528Z,28.50
2018-10-12T12:15:50.551Z,28.50
2018-10-12T12:18:19.648Z,28.50
2018-10-12T12:20:49.338Z,28.60
2018-10-12T12:23:18.468Z,28.60
2018-10-12T12:25:48.151Z,28.60
2018-10-12T12:28:17.210Z,28.70
2018-10-12T12:30:47.717Z,28.70
2018-10-12T12:33:17.298Z,28.70
2018-10-12T12:35:48.228Z,28.70
2018-10-12T12:38:16.922Z,28.70
2018-10-12T12:40:45.984Z,28.70
2018-10-12T12:43:15.227Z,28.80
2018-10-12T12:45:44.326Z,28.80
2018-10-12T12:48:14.567Z,28.80
2018-10-12T12:50:44.018Z,28.80
2018-10-12T12:53:13.306Z,28.80
2018-10-12T12:55:42.508Z,28.80
2018-10-12T12:58:11.590Z,28.70
2018-10-12T13:00:40.787Z,28.50
2018-10-12T13:03:10.009Z,28.50
2018-10-12T13:05:39.052Z,28.30
2018-10-12T13:08:08.163Z,28.20
2018-10-12T13:10:37.229Z,28.10
2018-10-12T13:13:06.678Z,28.00
2018-10-12T13:15:36.248Z,27.90
2018-10-12T13:18:05.420Z,27.90
2018-10-12T13:20:34.486Z,27.80
2018-10-12T13:23:03.590Z,27.80
2018-10-12T13:25:33.397Z,27.80
2018-10-12T13:28:02.461Z,27.80
2018-10-12T13:30:32.442Z,27.80
2018-10-12T13:33:01.943Z,27.80
2018-10-12T13:35:31.333Z,27.80
2018-10-12T13:38:00.429Z,27.70
2018-10-12T13:40:29.587Z,27.70
2018-10-12T13:42:59.006Z,27.70
2018-10-12T13:45:29.079Z,27.70
2018-10-12T13:47:59.595Z,27.70
2018-10-12T13:50:29.286Z,27.70
2018-10-12T13:52:58.350Z,27.70
2018-10-12T13:55:28.239Z,27.70
2018-10-12T13:57:57.561Z,27.70
2018-10-12T14:00:27.628Z,27.70
2018-10-12T14:02:56.598Z,27.70
2018-10-12T14:05:25.677Z,27.70
2018-10-12T14:07:54.759Z,27.70
2018-10-12T14:10:23.928Z,27.70
2018-10-12T14:12:53.717Z,27.60
2018-10-12T14:15:23.384Z,27.60
2018-10-12T14:17:52.543Z,27.60
2018-10-12T14:20:22.162Z,27.50
2018-10-12T14:22:51.365Z,27.50
2018-10-12T14:25:20.457Z,27.40
2018-10-12T14:27:49.726Z,27.40
2018-10-12T14:30:19.579Z,27.40
2018-10-12T14:32:49.975Z,27.30
2018-10-12T14:35:19.535Z,27.30
2018-10-12T14:37:48.666Z,27.20
2018-10-12T14:40:17.722Z,27.30
2018-10-12T14:42:46.998Z,27.20
2018-10-12T14:45:16.739Z,27.20
2018-10-12T14:47:46.481Z,27.20
2018-10-12T14:50:15.585Z,27.10
2018-10-12T14:52:45.549Z,27.10
2018-10-12T14:55:14.650Z,27.10
2018-10-12T14:57:44.478Z,27.10
2018-10-12T15:00:13.934Z,27.10
2018-10-12T15:02:43.025Z,27.10
2018-10-12T15:05:12.186Z,27.00
2018-10-12T15:07:41.250Z,27.00
2018-10-12T15:10:10.346Z,27.00
2018-10-12T15:12:39.947Z,27.00
2018-10-12T15:15:15.398Z,27.00
2018-10-12T15:17:45.852Z,27.00
2018-10-12T15:20:14.919Z,26.90
2018-10-12T15:22:44.713Z,26.90
2018-10-12T15:25:13.821Z,26.90
2018-10-12T15:27:44.020Z,26.80
2018-10-12T15:30:13.950Z,26.80
2018-10-12T15:32:44.288Z,26.80
2018-10-12T15:35:13.598Z,26.80
2018-10-12T15:37:43.372Z,26.80
2018-10-12T15:40:12.691Z,26.80
2018-10-12T15:42:41.931Z,26.70
2018-10-12T15:45:11.658Z,26.70
2018-10-12T15:47:42.147Z,26.70
2018-10-12T15:50:12.618Z,26.70
2018-10-12T15:52:42.227Z,26.70
2018-10-12T15:55:11.686Z,26.70
2018-10-12T15:57:41.097Z,26.60
2018-10-12T16:00:10.749Z,26.60
2018-10-12T16:02:40.123Z,26.60
2018-10-12T16:05:09.215Z,26.60
2018-10-12T16:07:39.083Z,26.50
2018-10-12T16:10:08.794Z,26.50
2018-10-12T16:12:38.917Z,26.50
2018-10-12T16:15:08.011Z,26.50
2018-10-12T16:17:37.332Z,26.50
2018-10-12T16:20:06.487Z,26.40
2018-10-12T16:22:36.489Z,26.40
2018-10-12T16:25:17.232Z,26.40
2018-10-12T16:27:46.286Z,26.40
2018-10-12T16:30:16.434Z,26.40
2018-10-12T16:32:46.165Z,26.30
2018-10-12T16:35:15.947Z,26.30
2018-10-12T16:37:45.014Z,26.30
2018-10-12T16:40:14.114Z,26.30
2018-10-12T16:42:43.818Z,26.30
2018-10-12T16:45:13.000Z,26.30
2018-10-12T16:49:07.676Z,26.30
2018-10-12T16:51:36.730Z,26.20
2018-10-12T16:54:06.706Z,26.20
2018-10-12T16:56:35.761Z,26.20
2018-10-12T16:59:05.752Z,26.20
2018-10-12T17:01:34.801Z,26.20
2018-10-12T17:04:03.919Z,26.20
2018-10-12T17:06:33.776Z,26.10
2018-10-12T17:09:03.382Z,25.80
2018-10-12T17:11:33.063Z,25.50
2018-10-12T17:14:03.058Z,25.30
2018-10-12T17:16:36.801Z,25.20
2018-10-12T17:19:07.131Z,25.00
2018-10-12T17:21:37.373Z,25.10
2018-10-12T17:24:06.938Z,25.20
2018-10-12T17:26:36.458Z,25.30
2018-10-12T17:29:05.986Z,25.40
2018-10-12T17:31:35.859Z,25.50
2018-10-12T17:34:06.525Z,25.50
2018-10-12T17:36:35.662Z,25.50
2018-10-12T17:39:09.258Z,25.50
2018-10-12T17:41:38.335Z,25.50
2018-10-12T17:44:07.399Z,25.50
2018-10-12T17:46:37.104Z,25.50
2018-10-12T17:49:06.300Z,25.50
2018-10-12T17:51:35.392Z,25.60
2018-10-12T17:54:05.494Z,25.50
2018-10-12T17:56:35.409Z,25.60
2018-10-12T17:59:04.514Z,25.50
2018-10-12T18:01:33.731Z,25.60
2018-10-12T18:04:02.850Z,25.50
2018-10-12T18:06:31.943Z,25.50
2018-10-12T18:09:02.429Z,25.50
2018-10-12T18:11:31.542Z,25.50
2018-10-12T18:14:03.911Z,25.50
2018-10-12T18:16:33.573Z,25.50
2018-10-12T18:19:05.810Z,25.50
2018-10-12T18:21:35.118Z,25.50
2018-10-12T18:24:08.953Z,25.50
2018-10-12T18:26:39.429Z,25.50
2018-10-12T18:29:10.400Z,25.50
2018-10-12T18:31:40.625Z,25.50
2018-10-12T18:34:11.948Z,25.50
2018-10-12T18:36:41.421Z,25.50
2018-10-12T18:39:14.928Z,25.50
2018-10-12T18:41:44.318Z,25.50
2018-10-12T18:44:14.114Z,25.50
2018-10-12T18:46:43.186Z,25.50
2018-10-12T18:49:12.792Z,25.40
2018-10-12T18:51:42.982Z,25.40
2018-10-12T18:54:13.320Z,25.40
2018-10-12T18:56:43.518Z,25.40
2018-10-12T18:59:15.673Z,25.40
2018-10-12T19:01:46.102Z,25.40
2018-10-12T19:04:17.909Z,25.40
2018-10-12T19:06:47.243Z,25.40
2018-10-12T19:09:21.935Z,25.40
2018-10-12T19:11:51.015Z,25.40
2018-10-12T19:14:21.442Z,25.40
2018-10-12T19:16:50.642Z,25.40
2018-10-12T19:19:19.842Z,25.40
2018-10-12T19:21:54.292Z,25.30
2018-10-12T19:24:24.843Z,25.30
2018-10-12T19:26:56.084Z,25.30
2018-10-12T19:29:26.617Z,25.30
2018-10-12T19:31:56.536Z,25.30
2018-10-12T19:34:25.644Z,25.30
2018-10-12T19:36:59.879Z,25.30
2018-10-12T19:39:30.173Z,25.30
2018-10-12T19:44:37.756Z,25.20
2018-10-12T19:47:07.603Z,25.20
2018-10-12T19:49:36.703Z,25.20
2018-10-12T19:52:07.079Z,25.20
2018-10-12T19:54:37.387Z,25.20
2018-10-12T19:57:06.531Z,25.20
2018-10-12T19:59:35.781Z,25.20
2018-10-12T20:02:05.843Z,25.20
2018-10-12T20:04:36.384Z,25.20
2018-10-12T20:07:06.204Z,25.20
2018-10-12T20:09:36.470Z,25.20
2018-10-12T20:12:06.098Z,25.20
2018-10-12T20:14:35.623Z,25.20
2018-10-12T20:17:05.116Z,25.20
2018-10-12T20:19:34.325Z,25.20
2018-10-12T20:22:03.470Z,25.20
2018-10-12T20:24:33.135Z,25.20
2018-10-12T20:27:02.195Z,25.10
2018-10-12T20:29:33.178Z,25.10
2018-10-12T20:32:03.286Z,25.10
2018-10-12T20:34:32.365Z,25.10
2018-10-12T20:37:01.622Z,25.10
2018-10-12T20:39:31.991Z,25.10
2018-10-12T20:42:02.688Z,25.10
2018-10-12T20:44:31.759Z,25.10
2018-10-12T20:47:03.948Z,25.10
2018-10-12T20:49:34.903Z,25.10
2018-10-12T20:52:03.958Z,25.10
2018-10-12T20:54:33.584Z,25.10
2018-10-12T20:57:03.430Z,25.10
2018-10-12T20:59:32.472Z,25.10
2018-10-12T21:02:01.620Z,25.00
2018-10-12T21:04:33.389Z,25.00
2018-10-12T21:07:02.984Z,25.00
2018-10-12T21:09:32.339Z,25.00
2018-10-12T21:12:01.909Z,25.00
2018-10-12T21:14:31.622Z,25.00
2018-10-12T21:17:00.701Z,25.00
2018-10-12T21:19:29.818Z,25.00
2018-10-12T21:21:59.432Z,25.00
2018-10-12T21:24:28.758Z,25.00
2018-10-12T21:26:57.950Z,25.00
2018-10-12T21:29:27.893Z,25.00
2018-10-12T21:31:57.588Z,25.00
2018-10-12T21:34:26.627Z,25.00
2018-10-12T21:36:56.794Z,24.90
2018-10-12T21:39:25.891Z,24.90
2018-10-12T21:41:59.123Z,24.90
2018-10-12T21:44:28.947Z,24.90
2018-10-12T21:46:58.974Z,24.90
2018-10-12T21:49:28.482Z,24.90
2018-10-12T21:51:57.534Z,24.90
2018-10-12T21:54:27.160Z,24.90
2018-10-12T21:56:58.682Z,24.90
2018-10-12T21:59:27.815Z,24.90
2018-10-12T22:01:56.883Z,24.90
2018-10-12T22:04:26.234Z,24.90
2018-10-12T22:06:55.325Z,24.90
2018-10-12T22:09:24.432Z,24.80
2018-10-12T22:11:57.928Z,24.90
2018-10-12T22:14:27.426Z,24.80
2018-10-12T22:16:56.494Z,24.80
2018-10-12T22:19:26.156Z,24.90
2018-10-12T22:21:55.264Z,24.80
2018-10-12T22:24:24.455Z,24.80
2018-10-12T22:26:54.373Z,24.80
2018-10-12T22:29:24.287Z,24.80
2018-10-12T22:31:53.791Z,24.80
2018-10-12T22:37:56.630Z,24.80
2018-10-12T22:40:26.351Z,24.80
2018-10-12T22:42:56.701Z,24.80
2018-10-12T22:45:26.269Z,24.80
2018-10-12T22:47:55.982Z,24.80
2018-10-12T22:50:25.210Z,24.80
2018-10-12T22:52:54.247Z,24.80
2018-10-12T22:55:23.421Z,24.80
2018-10-12T22:58:00.275Z,24.70
2018-10-12T23:00:30.658Z,24.80
2018-10-12T23:03:00.886Z,24.80
2018-10-12T23:05:30.593Z,24.70
2018-10-12T23:07:59.674Z,24.70
2018-10-12T23:10:28.769Z,24.70
2018-10-12T23:12:57.827Z,24.70
2018-10-12T23:15:27.368Z,24.70
2018-10-12T23:17:57.271Z,24.70
2018-10-12T23:20:26.321Z,24.70
2018-10-12T23:22:56.015Z,24.70
2018-10-12T23:25:26.949Z,24.70
2018-10-12T23:27:56.049Z,24.70
2018-10-12T23:30:26.098Z,24.70
2018-10-12T23:33:06.834Z,24.70
2018-10-12T23:35:36.530Z,24.70
2018-10-12T23:38:05.594Z,24.70
2018-10-12T23:40:35.230Z,24.70
2018-10-12T23:43:04.409Z,24.70
2018-10-12T23:45:33.490Z,24.60
2018-10-12T23:48:02.543Z,24.70
2018-10-12T23:50:31.625Z,24.70
2018-10-12T23:53:01.341Z,24.60
2018-10-12T23:55:30.985Z,24.60
2018-10-12T23:58:00.048Z,24.60
